Data for 04/12/2008

Time Sea-Level Adjusted Pressure Absolute Pressure Temperature Relative Humidity Dew Point   
(mb) (inHg) (mb) (inHg) (C) (F) (%) (C) (F)
00:05 1026 30.3 855 25.25 2.7 36.8 51 -6.6 20.2
00:10 1026 30.3 856 25.28 2.9 37.2 51 -6.4 20.5
00:15 1026 30.3 856 25.28 2.8 37.1 51 -6.3 20.6
00:20 1026 30.3 856 25.28 2.8 37 52 -6.2 20.8
00:25 1026 30.3 856 25.28 2.7 36.9 53 -6 21.2
00:30 1026 30.3 856 25.28 2.5 36.4 55 -5.8 21.6
00:35 1026 30.3 856 25.28 2.2 36 56 -5.6 22
00:40 1026 30.3 856 25.28 2.2 36 56 -5.7 21.7
00:45 1026 30.3 856 25.28 2.2 36 55 -5.9 21.4
00:50 1026 30.3 856 25.28 2.2 35.9 55 -6 21.3
00:55 1026 30.3 856 25.28 2.2 36 54 -6.2 20.9
01:00 1026 30.3 856 25.28 2.4 36.3 54 -5.9 21.3
01:05 1027 30.33 856 25.28 2.3 36.2 55 -5.8 21.6
01:10 1027 30.33 856 25.28 2.2 36 56 -5.8 21.6
01:15 1027 30.33 856 25.28 2 35.6 55 -6 21.2
01:20 1027 30.33 856 25.28 1.8 35.3 55 -6.2 20.9
01:25 1027 30.33 856 25.28 1.6 34.9 57 -6.1 21
01:30 1027 30.33 856 25.28 1.8 35.3 56 -6.1 21
01:35 1027 30.33 856 25.28 1.9 35.5 55 -6.1 21.1
01:40 1027 30.33 856 25.28 2 35.5 55 -6 21.1
01:45 1027 30.33 856 25.28 1.9 35.4 56 -6 21.2
01:50 1027 30.33 856 25.28 1.7 35.1 57 -5.9 21.4
01:55 1027 30.33 856 25.28 1.5 34.8 58 -5.9 21.4
02:00 1027 30.33 856 25.28 1.3 34.4 59 -5.8 21.5
02:05 1027 30.33 856 25.28 1.3 34.3 59 -5.9 21.4
02:10 1027 30.33 856 25.28 1.2 34.1 60 -5.7 21.7
02:15 1027 30.33 856 25.28 0.8 33.5 61 -5.8 21.6
02:20 1027 30.33 856 25.28 0.8 33.4 61 -5.8 21.6
02:25 1027 30.33 856 25.28 0.8 33.5 61 -5.8 21.6
02:30 1027 30.33 856 25.28 0.8 33.4 61 -5.9 21.4
02:35 1027 30.33 856 25.28 1 33.9 60 -5.9 21.3
02:40 1027 30.33 856 25.28 1.2 34.2 59 -6 21.2
02:45 1027 30.33 856 25.28 1.5 34.8 58 -5.9 21.4
02:50 1027 30.33 856 25.28 1.7 35.1 57 -5.8 21.5
02:55 1027 30.33 856 25.28 1.8 35.3 57 -5.8 21.6
03:00 1027 30.33 856 25.28 1.8 35.2 57 -5.8 21.5
03:05 1027 30.33 856 25.28 1.8 35.2 57 -5.8 21.5
03:10 1027 30.33 856 25.28 1.7 35.1 57 -5.9 21.5
03:15 1027 30.33 856 25.28 1.7 35 57 -5.9 21.5
03:20 1027 30.33 856 25.28 1.7 35 58 -5.8 21.5
03:25 1027 30.33 856 25.28 1.8 35.2 57 -5.8 21.6
03:30 1027 30.33 856 25.28 1.9 35.5 57 -5.8 21.6
03:35 1027 30.33 856 25.28 2 35.7 56 -5.8 21.6
03:40 1027 30.33 856 25.28 2.1 35.8 56 -5.7 21.8
03:45 1027 30.33 856 25.28 2.2 35.9 56 -5.6 21.8
03:50 1027 30.33 856 25.28 2.2 35.9 56 -5.7 21.8
03:55 1027 30.33 856 25.28 2.1 35.9 56 -5.7 21.7
04:00 1027 30.33 856 25.28 1.9 35.4 57 -5.8 21.6
04:05 1027 30.33 856 25.28 1.8 35.3 57 -5.8 21.6
04:10 1027 30.33 856 25.28 1.8 35.2 58 -5.7 21.7
04:15 1027 30.33 856 25.28 1.7 35.1 60 -5.2 22.6
04:20 1027 30.33 856 25.28 1.6 34.9 62 -4.9 23.1
04:25 1027 30.33 856 25.28 1.7 35 61 -5.1 22.9
04:30 1027 30.33 856 25.28 1.8 35.3 61 -4.9 23.1
04:35 1027 30.33 856 25.28 2.1 35.7 60 -4.9 23.1
04:40 1027 30.33 856 25.28 2.1 35.8 60 -4.8 23.4
04:45 1027 30.33 856 25.28 2.1 35.8 60 -4.8 23.4
04:50 1027 30.33 857 25.31 2.2 36 58 -5.1 22.9
04:55 1027 30.33 857 25.31 2.4 36.3 58 -5 23
05:00 1027 30.33 857 25.31 2.5 36.4 58 -4.9 23.1
05:05 1027 30.33 857 25.31 2.5 36.5 58 -4.9 23.2
05:10 1027 30.33 857 25.31 2.5 36.6 58 -4.9 23.2
05:15 1027 30.33 857 25.31 2.6 36.7 57 -5 23.1
05:20 1027 30.33 857 25.31 2.7 36.8 57 -5 23
05:25 1027 30.33 857 25.31 2.7 36.9 57 -4.9 23.2
05:30 1027 30.33 857 25.31 2.7 36.8 58 -4.7 23.5
05:35 1027 30.33 857 25.31 2.6 36.8 59 -4.7 23.6
05:40 1027 30.33 856 25.28 2.7 36.9 59 -4.6 23.7
05:45 1027 30.33 856 25.28 2.7 36.9 58 -4.7 23.6
05:50 1027 30.33 856 25.28 2.8 37 58 -4.6 23.7
05:55 1027 30.33 856 25.28 2.8 37 59 -4.5 23.8
06:00 1027 30.33 856 25.28 2.7 36.8 59 -4.5 23.9
06:05 1027 30.33 856 25.28 2.8 37 59 -4.5 23.9
06:10 1027 30.33 857 25.31 2.8 37 59 -4.5 23.9
06:15 1027 30.33 857 25.31 2.8 37 59 -4.5 23.9
06:20 1027 30.33 857 25.31 2.8 37 59 -4.5 24
06:25 1027 30.33 857 25.31 2.8 37 59 -4.4 24.1
06:30 1027 30.33 857 25.31 2.8 37 59 -4.4 24.1
06:35 1027 30.33 857 25.31 2.9 37.2 59 -4.4 24
06:40 1028 30.36 857 25.31 2.9 37.3 59 -4.4 24.1
06:45 1028 30.36 857 25.31 3 37.4 58 -4.4 24
06:50 1028 30.36 857 25.31 3.1 37.5 59 -4.2 24.4
06:55 1028 30.36 857 25.31 3 37.3 59 -4.2 24.5
07:00 1028 30.36 857 25.31 2.8 37.1 60 -4.2 24.5
07:05 1028 30.36 857 25.31 2.7 36.9 61 -4.1 24.6
07:10 1028 30.36 857 25.31 2.7 36.8 61 -4.1 24.7
07:15 1028 30.36 857 25.31 2.7 36.9 61 -4 24.7
07:20 1028 30.36 857 25.31 2.7 36.9 61 -4 24.8
07:25 1028 30.36 857 25.31 2.7 36.8 62 -3.9 24.9
07:30 1028 30.36 857 25.31 2.6 36.6 62 -4.1 24.6
07:35 1028 30.36 857 25.31 2.5 36.5 61 -4.2 24.5
07:40 1028 30.36 857 25.31 2.5 36.5 61 -4.2 24.5
07:45 1028 30.36 857 25.31 2.6 36.7 61 -4.1 24.6
07:50 1028 30.36 857 25.31 2.7 36.8 61 -4.1 24.5
07:55 1028 30.36 857 25.31 2.8 37 61 -4.1 24.7
08:00 1028 30.36 857 25.31 3 37.4 60 -3.9 24.9
08:05 1028 30.36 857 25.31 3 37.5 60 -3.9 24.9
08:10 1028 30.36 858 25.34 3.1 37.5 59 -4.1 24.6
08:15 1028 30.36 858 25.34 3.1 37.6 59 -4.1 24.6
08:20 1028 30.36 858 25.34 3.2 37.8 59 -4 24.9
08:25 1028 30.36 858 25.34 3.2 37.8 60 -3.7 25.3
08:30 1028 30.36 858 25.34 3.2 37.8 61 -3.6 25.5
08:35 1029 30.39 858 25.34 3.2 37.8 61 -3.7 25.3
08:40 1029 30.39 858 25.34 3.3 37.9 59 -3.9 25
08:45 1029 30.39 858 25.34 3.3 38 59 -3.8 25.1
08:50 1029 30.39 858 25.34 3.3 37.9 61 -3.6 25.5
08:55 1029 30.39 858 25.34 3.3 38 61 -3.5 25.7
09:00 1029 30.39 858 25.34 3.5 38.2 61 -3.3 26
09:05 1029 30.39 858 25.34 3.5 38.3 61 -3.3 26
09:10 1029 30.39 858 25.34 3.8 38.8 59 -3.5 25.6
09:15 1029 30.39 858 25.34 3.8 38.9 58 -3.7 25.4
09:20 1029 30.39 858 25.34 4.2 39.5 55 -3.9 24.9
09:25 1029 30.39 858 25.34 4.5 40 54 -4.1 24.5
09:30 1029 30.39 858 25.34 4.5 40.2 53 -4.1 24.6
09:35 1029 30.39 858 25.34 4.5 40.1 53 -4.3 24.3
09:40 1029 30.39 858 25.34 4.4 39.8 53 -4.4 24.2
09:45 1029 30.39 858 25.34 4.7 40.4 52 -4.2 24.4
09:50 1029 30.39 858 25.34 4.6 40.4 53 -4.2 24.5
09:55 1029 30.39 858 25.34 4.8 40.7 52 -4.2 24.5
10:00 1029 30.39 858 25.34 4.9 40.9 52 -4.2 24.5
10:05 1029 30.39 858 25.34 5.1 41.2 50 -4.5 23.9
10:10 1029 30.39 858 25.34 5.3 41.6 50 -4.4 24.2
10:15 1029 30.39 858 25.34 5.4 41.7 49 -4.4 24.1
10:20 1029 30.39 858 25.34 5.6 42 49 -4.3 24.3
10:25 1029 30.39 858 25.34 5.5 41.9 51 -3.9 24.9
10:30 1029 30.39 858 25.34 6.1 43.1 49 -3.8 25.2
10:35 1029 30.39 858 25.34 6.5 43.6 48 -3.7 25.3
10:40 1029 30.39 858 25.34 6.4 43.6 47 -3.9 25
10:45 1029 30.39 858 25.34 5.9 42.6 49 -4.1 24.6
10:50 1029 30.39 858 25.34 6.1 43 48 -4 24.8
10:55 1029 30.39 858 25.34 6.6 43.9 46 -4 24.7
11:00 1029 30.39 858 25.34 6.2 43.1 48 -4 24.9
11:05 1029 30.39 858 25.34 6.8 44.3 46 -4 24.8
11:10 1029 30.39 858 25.34 7.1 44.7 45 -4 24.8
11:15 1029 30.39 858 25.34 7 44.5 45 -4 24.7
11:20 1029 30.39 858 25.34 7.2 45 46 -3.6 25.5
11:25 1029 30.39 858 25.34 7.8 46.1 46 -3 26.5
11:30 1029 30.39 858 25.34 7.7 45.8 44 -3.8 25.2
11:35 1029 30.39 858 25.34 9 48.1 41 -3.7 25.4
11:40 1029 30.39 858 25.34 9.4 48.9 40 -3.4 25.9
11:45 1029 30.39 858 25.34 9.3 48.7 41 -3.4 25.8
11:50 1029 30.39 858 25.34 8.5 47.4 43 -3.4 26
11:55 1029 30.39 858 25.34 8.1 46.6 43 -3.7 25.3
12:00 1029 30.39 858 25.34 7.9 46.1 44 -3.6 25.5
12:05 1029 30.39 858 25.34 7.5 45.6 44 -4 24.7
12:10 1029 30.39 858 25.34 7.7 45.8 45 -3.6 25.4
12:15 1029 30.39 858 25.34 8.4 47.1 41 -4.1 24.6
12:20 1029 30.39 858 25.34 8.9 48 40 -4 24.8
12:25 1029 30.39 858 25.34 9.2 48.5 39 -3.9 25
12:30 1029 30.39 858 25.34 9.2 48.6 41 -3.2 26.2
12:35 1029 30.39 858 25.34 9 48.1 41 -3.7 25.3
12:40 1028 30.36 858 25.34 9.7 49.5 37 -4.2 24.5
12:45 1028 30.36 858 25.34 9.9 49.9 37 -4.1 24.6
12:50 1028 30.36 858 25.34 10.4 50.7 37 -3.7 25.3
12:55 1028 30.36 857 25.31 10.6 51.1 37 -3.3 26.1
13:00 1028 30.36 857 25.31 10.6 51.1 38 -3.1 26.5
13:05 1028 30.36 857 25.31 10.3 50.5 39 -2.9 26.8
13:10 1028 30.36 857 25.31 9.2 48.6 41 -3.3 26
13:15 1028 30.36 857 25.31 9.4 48.8 42 -2.9 26.8
13:20 1028 30.36 857 25.31 9.2 48.5 42 -3.1 26.4
13:25 1028 30.36 857 25.31 9.2 48.6 42 -3.1 26.4
13:30 1028 30.36 857 25.31 10.8 51.4 37 -3.1 26.4
13:35 1028 30.36 857 25.31 10.8 51.4 37 -3.3 26.1
13:40 1028 30.36 857 25.31 10.9 51.5 37 -3.3 26.1
13:45 1028 30.36 857 25.31 10.8 51.4 36 -3.8 25.2
13:50 1028 30.36 857 25.31 10.5 50.8 38 -3 26.5
13:55 1028 30.36 857 25.31 10.1 50.2 38 -3.4 25.9
14:00 1028 30.36 857 25.31 10.2 50.3 39 -3.3 26
14:05 1028 30.36 857 25.31 11 51.7 35 -3.8 25.2
14:10 1028 30.36 857 25.31 11.1 52 37 -3.1 26.5
14:15 1028 30.36 857 25.31 11.1 51.9 35 -3.8 25.2
14:20 1028 30.36 857 25.31 10.9 51.5 38 -3 26.6
14:25 1028 30.36 857 25.31 11.7 53.1 33 -3.8 25.2
14:30 1028 30.36 857 25.31 12.2 54 33 -3.4 26
14:35 1028 30.36 857 25.31 12.4 54.3 33 -3.3 26
14:40 1028 30.36 857 25.31 11.1 51.9 35 -3.6 25.5
14:45 1028 30.36 857 25.31 11.3 52.4 36 -3.2 26.2
14:50 1028 30.36 857 25.31 12 53.5 35 -3.1 26.4
14:55 1028 30.36 857 25.31 12.4 54.3 34 -3 26.5
15:00 1028 30.36 857 25.31 12 53.6 34 -3.3 26.1
15:05 1028 30.36 857 25.31 12 53.5 34 -3.2 26.2
15:10 1028 30.36 857 25.31 10.8 51.4 37 -3.2 26.2
15:15 1028 30.36 857 25.31 10.6 51.1 37 -3.5 25.6
15:20 1028 30.36 857 25.31 11.5 52.7 35 -3.3 26
15:25 1027 30.33 857 25.31 12.5 54.4 34 -2.9 26.7
15:30 1027 30.33 857 25.31 12.6 54.6 34 -3 26.7
15:35 1027 30.33 857 25.31 12.2 54 35 -2.7 27.1
15:40 1027 30.33 857 25.31 12.4 54.2 34 -3 26.5
15:45 1027 30.33 857 25.31 11.4 52.6 36 -3 26.7
15:50 1027 30.33 857 25.31 12.2 53.9 35 -2.8 27
15:55 1027 30.33 857 25.31 12.3 54.2 34 -3.2 26.2
16:00 1027 30.33 857 25.31 12.8 55.1 33 -2.9 26.7
16:05 1027 30.33 856 25.28 13.1 55.6 32 -3.3 26.1
16:10 1027 30.33 856 25.28 13 55.4 34 -2.5 27.5
16:15 1027 30.33 856 25.28 11.6 53 38 -2.2 28.1
16:20 1027 30.33 856 25.28 12.1 53.7 34 -3.1 26.4
16:25 1027 30.33 856 25.28 12.7 54.9 34 -2.8 27
16:30 1027 30.33 856 25.28 13.2 55.7 32 -2.9 26.7
16:35 1027 30.33 856 25.28 13.6 56.4 31 -3 26.5
16:40 1027 30.33 856 25.28 12.4 54.2 34 -3.1 26.5
16:45 1027 30.33 856 25.28 12.4 54.3 35 -2.8 27
16:50 1027 30.33 856 25.28 12.1 53.8 35 -2.9 26.7
16:55 1027 30.33 856 25.28 12.5 54.4 34 -2.9 26.8
17:00 1027 30.33 856 25.28 11.7 53.1 36 -2.7 27.1
17:05 1027 30.33 856 25.28 12.4 54.4 34 -2.9 26.7
17:10 1027 30.33 856 25.28 13.3 55.9 32 -3 26.6
17:15 1027 30.33 856 25.28 12.6 54.6 34 -2.9 26.7
17:20 1027 30.33 856 25.28 13.1 55.5 33 -2.8 27
17:25 1027 30.33 856 25.28 12.6 54.8 35 -2.4 27.6
17:30 1027 30.33 856 25.28 12.1 53.8 35 -3 26.6
17:35 1027 30.33 856 25.28 12.1 53.7 35 -2.8 26.9
17:40 1027 30.33 856 25.28 11.7 53 36 -3 26.6
17:45 1027 30.33 856 25.28 11.8 53.3 35 -2.9 26.8
17:50 1027 30.33 856 25.28 11.8 53.3 36 -2.8 27
17:55 1027 30.33 856 25.28 11.7 53.1 37 -2.6 27.3
18:00 1027 30.33 856 25.28 12 53.6 36 -2.6 27.3
18:05 1027 30.33 856 25.28 12.1 53.7 35 -2.7 27.1
18:10 1027 30.33 856 25.28 11.9 53.4 35 -2.9 26.8
18:15 1027 30.33 856 25.28 12.4 54.4 34 -3 26.6
18:20 1026 30.3 856 25.28 12.5 54.4 34 -2.8 27
18:25 1026 30.3 856 25.28 11.7 53.1 35 -3 26.5
18:30 1026 30.3 856 25.28 11.5 52.7 36 -3.2 26.3
18:35 1026 30.3 856 25.28 11.3 52.4 37 -2.9 26.7
18:40 1026 30.3 856 25.28 11.2 52.2 37 -2.9 26.9
18:45 1026 30.3 856 25.28 11.1 51.9 38 -2.8 26.9
18:50 1026 30.3 856 25.28 11 51.8 37 -3 26.6
18:55 1026 30.3 856 25.28 11 51.7 38 -2.7 27.1
19:00 1026 30.3 855 25.25 11 51.8 38 -2.8 26.9
19:05 1026 30.3 855 25.25 11 51.8 39 -2.4 27.7
19:10 1026 30.3 855 25.25 11.1 51.9 38 -2.6 27.3
19:15 1026 30.3 855 25.25 11 51.8 38 -2.7 27.1
19:20 1026 30.3 855 25.25 11 51.7 38 -2.8 26.9
19:25 1026 30.3 855 25.25 10.9 51.6 38 -2.9 26.8
19:30 1026 30.3 855 25.25 10.8 51.5 38 -2.9 26.8
19:35 1026 30.3 855 25.25 10.8 51.4 38 -3 26.6
19:40 1026 30.3 855 25.25 10.7 51.2 38 -2.9 26.7
19:45 1026 30.3 855 25.25 10.6 51.1 39 -2.8 26.9
19:50 1026 30.3 855 25.25 10.5 50.9 39 -2.8 26.9
19:55 1026 30.3 855 25.25 10.4 50.6 39 -2.8 27
20:00 1026 30.3 855 25.25 10.2 50.3 41 -2.5 27.5
20:05 1026 30.3 855 25.25 10 49.9 42 -2.3 27.9
20:10 1026 30.3 855 25.25 9.7 49.4 43 -2.1 28.2
20:15 1026 30.3 855 25.25 9.4 48.9 44 -2.1 28.2
20:20 1026 30.3 855 25.25 9.1 48.4 45 -2.2 28
20:25 1026 30.3 855 25.25 8.9 48.1 45 -2.5 27.6
20:30 1026 30.3 855 25.25 8.7 47.7 45 -2.5 27.4
20:35 1026 30.3 855 25.25 8.5 47.3 46 -2.5 27.4
20:40 1026 30.3 855 25.25 8.3 47 46 -2.5 27.5
20:45 1026 30.3 855 25.25 8.1 46.6 47 -2.4 27.8
20:50 1026 30.3 855 25.25 7.7 45.9 50 -2.1 28.2
20:55 1026 30.3 855 25.25 7.2 44.9 52 -2.1 28.2
21:00 1026 30.3 855 25.25 6.8 44.3 54 -1.9 28.5
21:05 1026 30.3 855 25.25 6.3 43.4 56 -1.8 28.7
21:10 1026 30.3 855 25.25 6.1 42.9 57 -1.9 28.6
21:15 1026 30.3 855 25.25 6 42.8 56 -2.1 28.3
21:20 1026 30.3 855 25.25 6.1 43 55 -2.1 28.1
21:25 1026 30.3 855 25.25 6.3 43.3 54 -2.3 27.9
21:30 1026 30.3 855 25.25 6.4 43.5 55 -2 28.3
21:35 1026 30.3 856 25.28 6.1 42.9 56 -2 28.3
21:40 1026 30.3 856 25.28 5.9 42.7 55 -2.3 27.9
21:45 1026 30.3 856 25.28 6 42.8 56 -2.1 28.2
21:50 1026 30.3 856 25.28 6 42.8 55 -2.3 27.8
21:55 1026 30.3 856 25.28 6 42.8 55 -2.3 27.9
22:00 1026 30.3 856 25.28 5.9 42.5 55 -2.5 27.6
22:05 1026 30.3 856 25.28 5.9 42.7 55 -2.4 27.7
22:10 1026 30.3 856 25.28 5.9 42.6 55 -2.4 27.6
22:15 1026 30.3 856 25.28 5.8 42.4 56 -2.4 27.7
22:20 1026 30.3 856 25.28 5.7 42.2 55 -2.5 27.4
22:25 1026 30.3 856 25.28 5.7 42.3 55 -2.5 27.5
22:30 1026 30.3 856 25.28 5.6 42.2 56 -2.4 27.7
22:35 1026 30.3 856 25.28 5.3 41.5 58 -2.4 27.7
22:40 1026 30.3 856 25.28 5.2 41.3 57 -2.6 27.3
22:45 1026 30.3 856 25.28 5.5 41.8 56 -2.5 27.4
22:50 1026 30.3 856 25.28 5.5 41.9 56 -2.5 27.4
22:55 1026 30.3 856 25.28 5.5 41.8 56 -2.6 27.4
23:00 1026 30.3 856 25.28 5.5 41.8 57 -2.5 27.5
23:05 1026 30.3 856 25.28 5.3 41.6 57 -2.5 27.5
23:10 1026 30.3 856 25.28 5.2 41.4 58 -2.5 27.6
23:15 1026 30.3 856 25.28 5 41 59 -2.4 27.7
23:20 1026 30.3 856 25.28 4.9 40.8 60 -2.3 27.8
23:25 1026 30.3 855 25.25 4.9 40.8 59 -2.5 27.5
23:30 1026 30.3 855 25.25 5 41 58 -2.5 27.5
23:35 1026 30.3 855 25.25 5 41.1 58 -2.5 27.4
23:40 1026 30.3 855 25.25 5.1 41.1 58 -2.5 27.5
23:45 1026 30.3 855 25.25 4.9 40.9 58 -2.6 27.4
23:50 1026 30.3 855 25.25 4.9 40.7 59 -2.6 27.4
23:55 1026 30.3 855 25.25 4.8 40.7 59 -2.6 27.3
24:00 1026 30.3 855 25.25 4.9 40.8 58 -2.6 27.4